Nearby METAR Reports

 

KAWO - Arlington Muni, Washington, USA
Distance from station: WSW 26mi, 42km
Updated: Wed, 26-Nov-2014 1:35am PST
Overcast
Overcast
 Wind from calm
Wind: Calm
Temperature: 48°F , 9°C
Dew Point: 45°F , 7°C
Humidity: 87%
Barometer: 30.15 inHg , 1021 hPa
Clouds: Overcast
Visibility: 2 miles , 3 km
Cloud details: Overcast 800 ft
2014/11/26 09:35 KAWO 260935Z AUTO 00000KT 2SM OVC008 09/07 A3015 RMK AO1
KPAE - Everett, Washington, USA
Distance from station: SW 39mi, 62km
Updated: Wed, 26-Nov-2014 12:53am PST
Overcast
Overcast
 Wind from SSW
Wind: SSW 22 mph , 35 km/h, Gust: 31 mph , 50 km/h
Temperature: 54°F , 12°C
Dew Point: 52°F , 11°C
Humidity: 94%
Barometer: 30.13 inHg , 1020.3 hPa
Clouds: Overcast
Visibility: 10 miles , 16 km
Cloud details: Overcast 600 ft
2014/11/26 08:53 KPAE 260853Z AUTO 20019G27KT 10SM OVC006 12/11 A3013 RMK AO2 PK WND 20027/0846 CIG 004V010 SLP206 T01220111 50001
 
KBVS - Burlington/Mt V, Washington, USA
Distance from station: WNW 40mi, 64km
Updated: Wed, 26-Nov-2014 1:35am PST
Overcast
Overcast
 Wind from calm
Wind: Calm
Temperature: 46°F , 8°C
Dew Point: 46°F , 8°C
Humidity: 100%
Barometer: 30.14 inHg , 1020.7 hPa
Clouds: Overcast
Visibility: 10 miles , 16 km
Cloud details: Few Clouds 600 ft
Mostly cloudy 2500 ft
Overcast 4300 ft
2014/11/26 09:35 KBVS 260935Z AUTO 00000KT 10SM FEW006 BKN025 OVC043 08/08 A3014 RMK A01 P000
KNUW - Whidbey Is. Nas, Washington, USA
Distance from station: W 48mi, 78km
Updated: Wed, 26-Nov-2014 12:56am PST
Mist, Overcast
Mist, Overcast
 Wind from ESE
Wind: ESE 8 mph , 13 km/h
Temperature: 50°F , 10°C
Wind Chill: 47°F , 8°C
Dew Point: 46°F , 8°C
Humidity: 88%
Barometer: 30.14 inHg , 1020.7 hPa
Summary: Mist
Clouds: Overcast
Visibility: 3 miles , 5 km
Cloud details: Few Clouds 500 ft
Mostly cloudy 2000 ft
Overcast 3500 ft
2014/11/26 08:56 KNUW 260856Z 11007KT 3SM BR FEW005 BKN020 OVC035 10/08 A3014 RMK AO2 SFC VIS 6 SLP208 T01000078 50000 $
 
KBLI - Bellingham, Washington, USA
Distance from station: NW 57mi, 91km
Updated: Wed, 26-Nov-2014 1:04am PST
Overcast
Overcast
 Wind from NNW
Wind: NNW 6 mph , 9 km/h
Temperature: 41°F , 5°C
Wind Chill: 37°F , 3°C
Dew Point: 39°F , 4°C
Humidity: 93%
Barometer: 30.12 inHg , 1020 hPa
Clouds: Overcast
Visibility: 10 miles , 16 km
Cloud details: Overcast 300 ft
2014/11/26 09:04 KBLI 260904Z AUTO 34005KT 10SM OVC003 05/04 A3012 RMK AO2 CIG 002V006
KBFI - Seattle/Boeing, Washington, USA
Distance from station: SW 58mi, 94km
Updated: Wed, 26-Nov-2014 12:53am PST
Mostly cloudy
Mostly cloudy
 Wind from S
Wind: S 15 mph , 24 km/h, Gust: 25 mph , 41 km/h
Temperature: 59°F , 15°C
Dew Point: 54°F , 12°C
Humidity: 82%
Barometer: 30.17 inHg , 1021.7 hPa
Clouds: Mostly cloudy
Visibility: 10 miles , 16 km
Cloud details: Few Clouds 1300 ft
Mostly cloudy 2000 ft
2014/11/26 08:53 KBFI 260853Z AUTO 18013G22KT 10SM FEW013 BKN020 15/12 A3017 RMK AO2 SLP215 T01500117 50005 TSNO